Flight Track Log - Related Links

Times and Time Zones

All times are in EDT time to prevent confusion due to time zone crossing. See the N561EJ flight status page for this flight to view local times or setup timezone preferences in your user account.

Time Position Orientation Groundspeed Altitude Reporting Facility
EDT Latitude Longitude Course Direction KTS MPH feet Rate Location/Type
Wed 11:15:15 AM 30.6744 -88.2272 95° East 160 184 1,500  Level Houston Center
Wed 11:16:18 AM 30.6700 -88.1636 95° East 173 199 5,200 2,976 Climbing Houston Center
Wed 11:17:20 AM 30.6842 -88.1044 74° East 198 228 7,700 2,274 Climbing Houston Center
Wed 11:18:22 AM 30.7297 -88.0561 42° Northeast 224 258 9,900 1,935 Climbing Houston Center
Wed 11:19:24 AM 30.7822 -88.0042 40° Northeast 249 287 11,700 1,839 Climbing Houston Center
Wed 11:20:26 AM 30.8350 -87.9533 40° Northeast 249 287 13,700 1,935 Climbing Houston Center
Wed 11:21:28 AM 30.9069 -87.8853 39° Northeast 277 319 15,700 1,790 Climbing Houston Center
Wed 11:22:30 AM 30.9711 -87.8228 40° Northeast 300 345 17,400 1,645 Climbing Houston Center
Wed 11:23:32 AM 31.0397 -87.7583 39° Northeast 317 365 19,100 1,597 Climbing Houston Center
Wed 11:24:34 AM 31.1092 -87.6894 40° Northeast 327 376 20,700 1,597 Climbing Houston Center
Wed 11:25:36 AM 31.1808 -87.6214 39° Northeast 333 383 22,400 1,113 Climbing Houston Center
Wed 11:26:38 AM 31.2714 -87.5328 40° Northeast 356 410 23,000 290 Climbing Houston Center
Wed 11:27:40 AM 31.3550 -87.4514 40° Northeast 389 448 23,000  Level Houston Center
Wed 11:28:04 AM 31.3936 -87.4203 35° Northeast 367 422 23,000  Level Atlanta Center
Wed 11:29:04 AM 31.4814 -87.3333 40° Northeast 392 451 23,000  Level Atlanta Center
Wed 11:30:04 AM 31.5689 -87.2608 35° Northeast 392 451 23,000  Level Atlanta Center
Wed 11:31:04 AM 31.6761 -87.2331 12° North 377 434 23,000  Level Atlanta Center
Wed 11:32:04 AM 31.7708 -87.2047 14° North 382 440 23,000  Level Atlanta Center
Wed 11:33:04 AM 31.8800 -87.1817 10° North 382 440 23,000  Level Atlanta Center
Wed 11:34:04 AM 31.9869 -87.1536 13° North 392 451 23,000  Level Atlanta Center
Wed 11:35:04 AM 32.0961 -87.1281 11° North 392 451 23,000  Level Atlanta Center
Wed 11:36:04 AM 32.2075 -87.0997 12° North 392 451 23,000 -150 Level Atlanta Center
Wed 11:37:04 AM 32.3106 -87.0714 13° North 392 451 22,700 -800 Descending Atlanta Center
Wed 11:38:04 AM 32.4175 -87.0456 12° North 392 451 21,400 150 Descending Atlanta Center
Wed 11:39:04 AM 32.5247 -87.0172 13° North 392 451 23,000 -1,700 Climbing Atlanta Center
Wed 11:40:04 AM 32.6275 -86.9911 12° North 387 445 18,000 -3,200 Descending Atlanta Center
Wed 11:41:04 AM 32.7200 -86.9694 11° North 363 418 16,600 -1,350 Descending Atlanta Center
Wed 11:42:04 AM 32.8103 -86.9453 13° North 341 392 15,300 -1,350 Descending Atlanta Center
Wed 11:43:04 AM 32.8942 -86.9233 12° North 318 366 13,900 -1,558 Descending Atlanta Center
Wed 11:43:21 AM 32.9214 -86.9192 North 304 350 13,300 -1,600 Descending Atlanta Center
Wed 11:44:04 AM 32.9803 -86.9014 14° North 312 359 12,300 -1,563 Descending Atlanta Center
Wed 11:44:57 AM 33.0686 -86.8819 10° North 334 384 10,800 -1,632 Descending Atlanta Center
Wed 11:45:58 AM 33.1503 -86.8622 11° North 298 343 9,200 -1,869 Descending Atlanta Center
Wed 11:46:59 AM 33.2239 -86.8422 13° North 276 318 7,000 -1,810 Descending Atlanta Center
Wed 11:48:04 AM 33.3097 -86.8278 North 275 316 5,400 -1,438 Descending Atlanta Center
Wed 11:49:00 AM 33.3631 -86.8742 324° Northwest 265 305 4,100 -718 Descending Atlanta Center
Wed 11:50:01 AM 33.4100 -86.9206 320° Northwest 185 213 4,000 -677 Descending Atlanta Center
Wed 11:51:04 AM 33.4647 -86.9025 15° North 157 181 2,700 -694 Descending Atlanta Center
Wed 11:52:02 AM 33.4944 -86.8786 34° Northeast 143 165 2,600 -356 Descending Atlanta Center
Wed 11:53:02 AM 33.5142 -86.8392 59° Northeast 129 148 2,000 -645 Descending Atlanta Center
Wed 11:54:03 AM 33.5336 -86.8050 56° Northeast 119 137 1,300 -689 Descending Atlanta Center
Wed 11:56:00 AM 33.5500 -86.7500 North  Level FlightAware Approximate
Wed 12:03:00 PM 33.5639 -86.7523 North  Level Estimated

Login

Don't have an account? Register now (free) for customized features, flight alerts, and more!